Time;durP1;ratioP1;P1;durP2;ratioP2;P2;SDS_P1;SDS_P2;PMS_P1;PMS_P2;Temp;Humidity;BMP_temperature;BMP_pressure;BME280_temperature;BME280_humidity;BME280_pressure;Samples;Min_cycle;Max_cycle;Signal;HPM_P1;HPM_P2
2023/01/09 00:01:31;;;;;;;47.63;22.10;;;4.00;99.90;;;;;;4993154;28;20204;-75
2023/01/09 00:04:04;;;;;;;49.63;21.63;;;4.00;99.90;;;;;;4977593;28;20245;-79
2023/01/09 00:06:31;;;;;;;48.03;21.90;;;4.00;99.90;;;;;;4994308;28;20222;-81
2023/01/09 00:08:58;;;;;;;48.67;22.07;;;3.80;99.90;;;;;;4961096;28;20615;-78
2023/01/09 00:11:26;;;;;;;51.33;22.47;;;3.90;99.90;;;;;;4978079;28;20194;-77
2023/01/09 00:13:55;;;;;;;48.23;21.80;;;3.90;99.90;;;;;;4995323;28;20189;-76
2023/01/09 00:16:31;;;;;;;47.70;21.57;;;3.90;99.90;;;;;;4993108;28;20666;-76
2023/01/09 00:19:09;;;;;;;50.63;20.93;;;4.00;99.90;;;;;;4977270;28;20195;-76
2023/01/09 00:21:37;;;;;;;45.80;21.80;;;3.90;99.90;;;;;;4961202;28;20654;-76
2023/01/09 00:24:04;;;;;;;48.87;22.23;;;3.90;99.90;;;;;;4994603;28;20190;-75
2023/01/09 00:26:31;;;;;;;48.33;21.27;;;3.90;99.90;;;;;;4977450;28;20607;-76
2023/01/09 00:28:58;;;;;;;49.83;21.77;;;3.80;99.90;;;;;;4993593;28;20229;-81
2023/01/09 00:31:29;;;;;;;46.13;20.93;;;3.90;99.90;;;;;;4995021;28;20202;-85
2023/01/09 00:34:07;;;;;;;48.97;21.97;;;3.80;99.90;;;;;;4992456;28;20589;-80
2023/01/09 00:36:34;;;;;;;45.80;20.93;;;3.80;99.90;;;;;;4976809;28;20277;-76
2023/01/09 00:39:10;;;;;;;47.00;20.83;;;3.80;99.90;;;;;;4958411;28;20197;-83
2023/01/09 00:41:50;;;;;;;44.67;21.67;;;3.80;99.90;;;;;;4942638;28;20638;-81
2023/01/09 00:44:49;;;;;;;47.30;21.97;;;4.00;99.90;;;;;;4957196;28;20568;-82
2023/01/09 00:47:22;;;;;;;44.83;21.17;;;3.90;99.90;;;;;;4975441;28;20225;-82
2023/01/09 00:50:06;;;;;;;47.13;20.93;;;3.90;99.90;;;;;;4974465;28;20300;-78
2023/01/09 00:53:03;;;;;;;46.40;21.87;;;3.80;99.90;;;;;;4993070;28;20197;-82
2023/01/09 00:56:10;;;;;;;48.40;22.13;;;3.80;99.90;;;;;;4980430;28;20705;-80
2023/01/09 00:58:59;;;;;;;46.27;21.10;;;3.80;99.90;;;;;;4977855;28;20206;-83
2023/01/09 01:01:50;;;;;;;45.83;21.30;;;3.80;99.90;;;;;;4977248;28;20199;-79
2023/01/09 01:10:28;;;;;;;47.03;21.07;;;3.90;99.90;;;;;;4974036;28;20650;-83
2023/01/09 01:12:57;;;;;;;47.10;21.70;;;4.00;99.90;;;;;;4973918;28;20216;-81
2023/01/09 01:15:52;;;;;;;43.17;21.13;;;3.90;99.90;;;;;;4956586;28;20329;-77
2023/01/09 01:18:32;;;;;;;47.70;21.73;;;3.90;99.90;;;;;;4974504;28;20217;-76
2023/01/09 01:21:12;;;;;;;50.17;22.40;;;3.80;99.90;;;;;;4974844;28;20201;-78
2023/01/09 01:23:52;;;;;;;47.43;21.77;;;3.80;99.90;;;;;;4973219;28;20539;-80
2023/01/09 01:26:46;;;;;;;45.53;21.40;;;3.90;99.90;;;;;;4973245;28;20643;-78
2023/01/09 01:30:13;;;;;;;;;;;;;;;;;;;;;
2023/01/09 01:33:04;;;;;;;;;;;;;;;;;;;;;
2023/01/09 01:35:37;;;;;;;44.10;21.30;;;3.80;99.90;;;;;;4974277;28;20624;-80
2023/01/09 01:38:04;;;;;;;51.10;23.00;;;3.70;99.90;;;;;;4957440;28;20237;-80
2023/01/09 01:40:33;;;;;;;49.80;22.07;;;3.70;99.90;;;;;;4973542;28;20270;-81
2023/01/09 01:43:00;;;;;;;48.73;22.50;;;3.80;99.90;;;;;;4974419;28;20661;-77
2023/01/09 01:45:29;;;;;;;48.00;22.00;;;3.70;99.90;;;;;;4972958;28;20197;-79
2023/01/09 01:48:10;;;;;;;48.40;21.50;;;3.60;99.90;;;;;;4957256;28;20223;-81
2023/01/09 01:50:52;;;;;;;46.77;21.40;;;3.80;99.90;;;;;;4973227;28;20221;-83
2023/01/09 01:53:32;;;;;;;48.20;22.37;;;3.80;99.90;;;;;;4957098;28;20272;-83
2023/01/09 01:56:18;;;;;;;46.10;22.23;;;3.70;99.90;;;;;;4973934;28;20225;-78
2023/01/09 01:58:57;;;;;;;46.67;21.93;;;3.70;99.90;;;;;;4956840;28;20229;-80
2023/01/09 02:01:46;;;;;;;47.10;22.37;;;3.70;99.90;;;;;;4956548;28;20256;-80
2023/01/09 02:04:15;;;;;;;48.57;22.60;;;3.70;99.90;;;;;;4956933;28;20205;-78
2023/01/09 02:06:58;;;;;;;53.27;23.03;;;3.70;99.90;;;;;;4956962;28;20221;-79
2023/01/09 02:09:26;;;;;;;51.30;22.93;;;3.70;99.90;;;;;;4972840;28;20212;-81
2023/01/09 02:11:55;;;;;;;49.20;22.23;;;3.90;99.90;;;;;;4972875;28;20189;-82
2023/01/09 02:14:27;;;;;;;48.30;22.70;;;3.80;99.90;;;;;;4972893;28;20202;-82
2023/01/09 02:17:12;;;;;;;49.97;22.63;;;3.70;99.90;;;;;;4956724;28;20194;-81
2023/01/09 02:20:10;;;;;;;49.47;23.07;;;3.70;99.90;;;;;;4973834;28;20190;-81
2023/01/09 02:23:19;;;;;;;50.47;22.40;;;3.80;99.90;;;;;;4955926;28;20210;-80
2023/01/09 02:26:14;;;;;;;47.23;22.23;;;3.80;99.90;;;;;;4973584;28;20256;-81
2023/01/09 02:29:15;;;;;;;47.20;22.33;;;3.90;99.90;;;;;;4975761;28;20278;-79
2023/01/09 02:32:06;;;;;;;46.90;21.77;;;3.90;99.90;;;;;;4960215;28;20300;-78
2023/01/09 02:34:48;;;;;;;43.37;21.13;;;3.80;99.90;;;;;;4960473;28;20208;-79
2023/01/09 02:37:43;;;;;;;49.10;22.63;;;3.90;99.90;;;;;;4960296;28;20226;-81
2023/01/09 02:40:37;;;;;;;45.60;21.80;;;3.90;99.90;;;;;;4960499;28;20647;-79
2023/01/09 02:43:08;;;;;;;44.27;20.63;;;3.90;99.90;;;;;;4960412;28;20202;-80
2023/01/09 02:45:35;;;;;;;42.97;20.30;;;4.00;99.90;;;;;;4976260;28;20660;-78
2023/01/09 02:48:02;;;;;;;50.20;21.80;;;4.00;99.90;;;;;;4960223;28;20212;-80
2023/01/09 02:50:38;;;;;;;42.47;20.93;;;4.10;99.90;;;;;;4960947;28;20252;-80
2023/01/09 02:53:28;;;;;;;44.13;20.77;;;4.00;99.90;;;;;;4960137;28;20213;-77
2023/01/09 02:56:30;;;;;;;43.03;20.53;;;4.10;99.90;;;;;;4972095;28;20238;-78
2023/01/09 02:59:12;;;;;;;42.97;19.80;;;4.10;99.90;;;;;;4973519;28;20195;-82
2023/01/09 03:02:13;;;;;;;38.17;19.70;;;4.20;99.90;;;;;;4973158;28;20269;-77
2023/01/09 03:05:21;;;;;;;41.53;20.27;;;4.20;99.90;;;;;;4971892;28;20297;-81
2023/01/09 03:08:01;;;;;;;42.97;19.33;;;4.30;99.90;;;;;;4956866;29;20203;-80
2023/01/09 03:10:58;;;;;;;39.37;19.43;;;4.30;99.90;;;;;;4957058;29;20290;-81
2023/01/09 03:13:31;;;;;;;37.73;18.33;;;4.30;99.90;;;;;;4957036;29;20198;-78
2023/01/09 03:16:03;;;;;;;38.17;18.97;;;4.30;99.90;;;;;;4972551;28;20200;-76
2023/01/09 03:18:31;;;;;;;38.30;18.53;;;4.20;99.90;;;;;;4956791;29;20620;-80
2023/01/09 03:20:59;;;;;;;37.97;18.33;;;4.40;99.90;;;;;;4957682;28;20190;-81
2023/01/09 03:23:26;;;;;;;38.47;18.57;;;4.40;99.90;;;;;;4957584;28;20201;-77
2023/01/09 03:25:53;;;;;;;38.20;18.73;;;4.40;99.90;;;;;;4956221;29;20492;-79
2023/01/09 03:28:26;;;;;;;36.10;18.47;;;4.40;99.90;;;;;;4956630;29;20311;-80
2023/01/09 03:30:53;;;;;;;36.40;18.40;;;4.30;99.90;;;;;;4956323;29;20610;-81
2023/01/09 03:33:20;;;;;;;40.13;19.20;;;4.30;99.90;;;;;;4972370;28;20218;-80
2023/01/09 03:35:47;;;;;;;34.70;16.87;;;4.30;99.90;;;;;;4956177;29;20233;-79
2023/01/09 03:38:14;;;;;;;36.30;18.60;;;4.40;99.90;;;;;;4955921;28;20314;-81
2023/01/09 03:40:44;;;;;;;36.57;17.97;;;4.30;99.90;;;;;;4955443;29;20257;-80
2023/01/09 03:43:11;;;;;;;38.87;19.37;;;4.40;99.90;;;;;;4972265;28;20190;-80
2023/01/09 03:45:38;;;;;;;35.20;18.20;;;4.20;99.90;;;;;;4971633;28;20193;-81
2023/01/09 03:48:05;;;;;;;37.73;18.70;;;4.30;99.90;;;;;;4957107;28;20219;-79
2023/01/09 03:50:32;;;;;;;39.37;20.03;;;4.20;99.90;;;;;;4956137;29;20226;-81
2023/01/09 03:52:59;;;;;;;40.33;19.33;;;4.10;99.90;;;;;;4957239;28;20253;-81
2023/01/09 03:55:27;;;;;;;40.20;19.50;;;4.20;99.90;;;;;;4956066;28;20235;-81
2023/01/09 03:57:54;;;;;;;40.73;19.67;;;4.10;99.90;;;;;;4972014;28;20264;-78
2023/01/09 04:00:24;;;;;;;42.10;19.90;;;4.10;99.90;;;;;;4955963;29;20207;-81
2023/01/09 04:02:51;;;;;;;44.77;20.87;;;4.20;99.90;;;;;;4972215;28;20652;-81
2023/01/09 04:05:18;;;;;;;43.53;21.03;;;4.30;99.90;;;;;;4971758;28;20268;-78
2023/01/09 04:07:45;;;;;;;49.20;20.50;;;4.20;99.90;;;;;;4971574;28;20203;-77
2023/01/09 04:10:12;;;;;;;43.50;20.83;;;4.20;99.90;;;;;;4971775;28;20245;-80
2023/01/09 04:12:39;;;;;;;43.80;20.47;;;4.10;99.90;;;;;;4955940;29;20191;-77
2023/01/09 04:15:06;;;;;;;46.30;21.13;;;4.00;99.90;;;;;;4956529;28;20249;-80
2023/01/09 04:17:33;;;;;;;42.53;20.50;;;4.10;99.90;;;;;;4971524;28;20203;-80
2023/01/09 04:20:00;;;;;;;38.97;19.47;;;4.10;99.90;;;;;;4955250;29;20288;-81
2023/01/09 04:22:27;;;;;;;39.97;20.50;;;4.00;99.90;;;;;;4971263;28;20566;-78
2023/01/09 04:24:54;;;;;;;39.37;19.73;;;4.10;99.90;;;;;;4955313;29;20207;-80
2023/01/09 04:27:22;;;;;;;39.30;19.17;;;4.20;99.90;;;;;;4956520;28;20186;-78
2023/01/09 04:29:49;;;;;;;43.63;20.20;;;4.20;99.90;;;;;;4954867;29;20223;-79
2023/01/09 04:32:16;;;;;;;41.30;18.67;;;4.20;99.90;;;;;;4956378;28;20307;-81
2023/01/09 04:34:43;;;;;;;38.87;19.37;;;4.20;99.90;;;;;;4954846;29;20209;-78
2023/01/09 04:37:10;;;;;;;37.40;18.73;;;4.20;99.90;;;;;;4954692;29;20656;-81
2023/01/09 04:39:37;;;;;;;38.10;19.33;;;4.30;99.90;;;;;;4955256;29;20595;-80
2023/01/09 04:42:04;;;;;;;36.60;18.10;;;4.20;99.90;;;;;;4956236;28;20199;-81
2023/01/09 04:44:31;;;;;;;35.27;18.73;;;4.10;99.90;;;;;;4971258;28;20609;-79
2023/01/09 04:46:58;;;;;;;39.27;19.67;;;4.10;99.90;;;;;;4954563;29;20208;-80
2023/01/09 04:49:25;;;;;;;37.37;18.50;;;4.10;99.90;;;;;;4954960;29;20235;-80
2023/01/09 04:51:52;;;;;;;38.47;19.27;;;4.20;99.90;;;;;;4970967;28;20226;-77
2023/01/09 04:54:19;;;;;;;38.97;19.50;;;4.20;99.90;;;;;;4970633;28;20200;-80
2023/01/09 04:56:47;;;;;;;40.60;19.80;;;4.20;99.90;;;;;;4954772;28;20628;-78
2023/01/09 04:59:14;;;;;;;39.17;18.60;;;4.10;99.90;;;;;;4971475;28;20708;-77
2023/01/09 05:01:41;;;;;;;37.60;18.97;;;4.00;99.90;;;;;;4970913;28;20294;-77
2023/01/09 05:04:11;;;;;;;36.03;18.47;;;4.20;99.90;;;;;;4954192;29;20221;-78
2023/01/09 05:06:39;;;;;;;40.33;19.43;;;4.20;99.90;;;;;;4970211;28;20267;-81
2023/01/09 05:09:06;;;;;;;34.13;17.97;;;4.30;99.90;;;;;;4970397;28;20231;-77
2023/01/09 05:11:33;;;;;;;37.00;19.30;;;4.30;99.90;;;;;;4954603;29;20200;-81
2023/01/09 05:14:00;;;;;;;39.60;18.57;;;4.20;99.90;;;;;;4970420;28;20642;-81
2023/01/09 05:16:27;;;;;;;38.40;19.07;;;4.30;99.90;;;;;;4955711;28;20631;-77
2023/01/09 05:18:55;;;;;;;35.23;18.77;;;4.30;99.90;;;;;;4970542;28;20651;-77
2023/01/09 05:21:26;;;;;;;37.97;19.83;;;4.30;99.90;;;;;;4955566;28;20595;-80
2023/01/09 05:23:53;;;;;;;37.73;18.67;;;4.30;99.90;;;;;;4954386;29;20302;-80
2023/01/09 05:26:22;;;;;;;39.17;19.00;;;4.40;99.90;;;;;;4954365;29;20202;-80
2023/01/09 05:28:55;;;;;;;38.50;18.73;;;4.30;99.90;;;;;;4970142;28;20226;-80
2023/01/09 05:31:24;;;;;;;36.47;18.83;;;4.40;99.90;;;;;;4955729;28;20179;-77
2023/01/09 05:33:51;;;;;;;37.67;18.80;;;4.40;99.90;;;;;;4954946;28;20567;-80
2023/01/09 05:36:18;;;;;;;37.17;19.03;;;4.40;99.90;;;;;;4954227;29;20271;-80
2023/01/09 05:38:46;;;;;;;36.30;18.63;;;4.50;99.90;;;;;;4955393;28;20210;-76
2023/01/09 05:41:13;;;;;;;35.80;18.60;;;4.50;99.90;;;;;;4955238;28;20221;-79
2023/01/09 05:43:40;;;;;;;34.40;18.40;;;4.50;99.90;;;;;;4956299;29;20208;-76
2023/01/09 05:46:07;;;;;;;35.13;18.13;;;4.50;99.90;;;;;;4972468;28;20193;-81
2023/01/09 05:48:35;;;;;;;33.40;18.23;;;4.50;99.90;;;;;;4958303;28;20202;-78
2023/01/09 05:51:02;;;;;;;35.47;18.27;;;4.50;99.90;;;;;;4972778;28;20276;-79
2023/01/09 05:53:29;;;;;;;37.33;18.77;;;4.50;99.90;;;;;;4973183;28;20198;-80
2023/01/09 05:55:56;;;;;;;35.97;17.27;;;4.50;99.90;;;;;;4974117;28;20697;-79
2023/01/09 05:58:23;;;;;;;32.50;16.83;;;4.60;99.90;;;;;;4957448;28;20290;-79
2023/01/09 06:00:52;;;;;;;35.87;17.47;;;4.60;99.90;;;;;;4972972;28;20228;-79
2023/01/09 06:03:19;;;;;;;32.63;17.73;;;4.60;99.90;;;;;;4973728;28;20193;-79
2023/01/09 06:05:46;;;;;;;33.13;17.70;;;4.70;99.90;;;;;;4973958;28;20199;-80
2023/01/09 06:08:13;;;;;;;33.67;18.17;;;4.70;99.90;;;;;;4957312;28;20594;-79
2023/01/09 06:10:40;;;;;;;31.13;17.77;;;4.60;99.90;;;;;;4956406;28;20245;-80
2023/01/09 06:13:07;;;;;;;32.57;17.60;;;4.60;99.90;;;;;;4973865;28;20212;-80
2023/01/09 06:15:34;;;;;;;32.67;17.20;;;4.60;99.90;;;;;;4956586;28;20210;-82
2023/01/09 06:18:01;;;;;;;31.77;17.70;;;4.70;99.90;;;;;;4956655;28;20202;-79
2023/01/09 06:20:33;;;;;;;31.10;17.03;;;4.60;99.90;;;;;;4956784;28;20262;-81
2023/01/09 06:23:02;;;;;;;34.50;16.97;;;4.50;99.90;;;;;;4956895;28;20221;-76
2023/01/09 06:25:30;;;;;;;30.50;17.20;;;4.60;99.90;;;;;;4956628;28;20698;-78
2023/01/09 06:27:56;;;;;;;32.60;16.77;;;4.60;99.90;;;;;;4972608;28;20649;-77
2023/01/09 06:30:23;;;;;;;33.83;17.43;;;4.40;99.90;;;;;;4972789;28;20228;-76
2023/01/09 06:32:50;;;;;;;35.50;18.13;;;4.40;99.90;;;;;;4973886;28;20245;-75
2023/01/09 06:35:19;;;;;;;32.63;17.70;;;4.50;99.90;;;;;;4973682;28;20687;-75
2023/01/09 06:37:47;;;;;;;32.30;17.07;;;4.40;99.90;;;;;;4973029;28;20221;-79
2023/01/09 06:40:26;;;;;;;32.90;16.93;;;4.50;99.90;;;;;;4956640;28;20566;-79
2023/01/09 06:43:05;;;;;;;30.87;16.73;;;4.40;99.90;;;;;;4974097;28;20186;-77
2023/01/09 06:45:33;;;;;;;31.77;17.03;;;4.50;99.90;;;;;;4956073;28;20224;-77
2023/01/09 06:48:36;;;;;;;32.10;17.10;;;4.50;99.90;;;;;;4972629;28;20746;-75
2023/01/09 06:51:26;;;;;;;31.33;16.70;;;4.40;99.90;;;;;;4969438;28;20705;-75
2023/01/09 06:54:19;;;;;;;32.70;17.07;;;4.50;99.90;;;;;;4967759;28;20240;-75
2023/01/09 06:56:59;;;;;;;29.43;15.97;;;4.50;99.90;;;;;;4983618;28;20738;-75
2023/01/09 06:59:26;;;;;;;31.43;17.03;;;4.50;99.90;;;;;;4974215;28;20260;-78
2023/01/09 07:01:53;;;;;;;30.10;16.40;;;4.50;99.90;;;;;;4988817;28;20256;-77
2023/01/09 07:04:28;;;;;;;32.73;17.77;;;4.40;99.90;;;;;;4977478;28;20198;-76
2023/01/09 07:06:58;;;;;;;33.70;16.87;;;4.40;99.90;;;;;;4973579;28;20201;-74
2023/01/09 07:09:27;;;;;;;29.97;16.63;;;4.40;99.90;;;;;;4973727;28;20300;-82
2023/01/09 07:12:00;;;;;;;28.83;16.80;;;4.30;99.90;;;;;;4973664;28;20194;-82
2023/01/09 07:14:30;;;;;;;30.27;16.63;;;4.20;99.90;;;;;;4988538;28;20209;-79
2023/01/09 07:16:57;;;;;;;32.77;17.33;;;4.30;99.90;;;;;;4989229;28;20198;-76
2023/01/09 07:19:27;;;;;;;33.67;17.47;;;4.30;99.90;;;;;;4975894;28;20200;-81
2023/01/09 07:21:54;;;;;;;33.03;16.37;;;4.30;99.90;;;;;;4977141;28;20282;-81
2023/01/09 07:24:29;;;;;;;34.53;17.00;;;4.30;99.90;;;;;;4976791;28;20204;-77
2023/01/09 07:26:59;;;;;;;32.60;17.47;;;4.30;99.90;;;;;;4975869;28;20200;-76
2023/01/09 07:29:26;;;;;;;31.53;16.93;;;4.20;99.90;;;;;;4976736;28;20240;-76
2023/01/09 07:31:53;;;;;;;31.00;16.80;;;4.30;99.90;;;;;;4976013;28;20211;-78
2023/01/09 07:34:20;;;;;;;33.57;17.00;;;4.30;99.90;;;;;;4992130;28;20309;-79
2023/01/09 07:36:49;;;;;;;30.90;16.57;;;4.20;99.90;;;;;;4975258;28;20563;-81
2023/01/09 07:39:16;;;;;;;33.17;17.27;;;4.30;99.90;;;;;;4976871;28;20197;-78
2023/01/09 07:41:44;;;;;;;32.70;17.10;;;4.30;99.90;;;;;;4975880;28;20300;-81
2023/01/09 07:44:12;;;;;;;31.10;16.67;;;4.30;99.90;;;;;;4975847;28;20203;-81
2023/01/09 07:46:39;;;;;;;31.63;16.40;;;4.30;99.90;;;;;;4975438;28;20663;-76
2023/01/09 07:49:12;;;;;;;31.83;16.90;;;4.30;99.90;;;;;;4976785;28;20195;-78
2023/01/09 07:51:41;;;;;;;31.30;16.47;;;4.30;99.90;;;;;;4977186;28;20221;-81
2023/01/09 07:54:09;;;;;;;28.47;16.03;;;4.30;99.90;;;;;;4975185;28;20664;-82
2023/01/09 07:56:37;;;;;;;30.77;15.97;;;4.40;99.90;;;;;;4986821;28;20232;-75
2023/01/09 07:59:04;;;;;;;30.43;16.37;;;4.40;99.90;;;;;;4995989;28;20201;-81
2023/01/09 08:01:31;;;;;;;29.27;16.10;;;4.40;99.90;;;;;;4978226;28;20202;-74
2023/01/09 08:03:58;;;;;;;31.87;16.27;;;4.40;99.90;;;;;;4978411;28;20197;-77
2023/01/09 08:06:25;;;;;;;31.67;15.87;;;4.50;99.90;;;;;;4993576;28;20189;-72
2023/01/09 08:08:52;;;;;;;33.40;16.83;;;4.50;99.90;;;;;;4977784;28;20292;-73
2023/01/09 08:11:19;;;;;;;32.87;15.87;;;4.40;99.90;;;;;;4977630;28;20724;-74
2023/01/09 08:13:46;;;;;;;30.50;16.60;;;4.50;99.90;;;;;;4995360;28;20232;-72
2023/01/09 08:16:12;;;;;;;29.10;16.17;;;4.50;99.90;;;;;;4978438;28;20284;-79
2023/01/09 08:18:40;;;;;;;30.27;16.43;;;4.50;99.90;;;;;;4995301;28;20193;-78
2023/01/09 08:21:06;;;;;;;28.73;16.00;;;4.50;99.90;;;;;;4977947;28;20669;-81
2023/01/09 08:23:33;;;;;;;27.60;16.03;;;4.40;99.90;;;;;;4977827;28;20647;-75
2023/01/09 08:26:03;;;;;;;27.23;15.67;;;4.50;99.90;;;;;;4977463;28;20290;-77
2023/01/09 08:28:29;;;;;;;28.60;15.60;;;4.50;99.90;;;;;;4977628;28;20650;-71
2023/01/09 08:30:56;;;;;;;27.40;15.73;;;4.60;99.90;;;;;;4977319;28;20220;-78
2023/01/09 08:33:23;;;;;;;26.50;14.83;;;4.70;99.90;;;;;;4977682;28;20197;-75
2023/01/09 08:35:52;;;;;;;27.67;15.40;;;4.70;99.90;;;;;;4977084;28;20292;-76
2023/01/09 08:38:21;;;;;;;27.27;15.17;;;4.80;99.90;;;;;;4994821;28;20213;-74
2023/01/09 08:40:56;;;;;;;27.37;15.80;;;4.80;99.90;;;;;;4994829;28;20287;-82
2023/01/09 08:49:05;;;;;;;29.70;15.07;;;4.80;99.90;;;;;;4993430;28;20300;-76
2023/01/09 08:51:32;;;;;;;30.37;15.60;;;4.80;99.90;;;;;;4976900;28;20236;-74
2023/01/09 08:53:58;;;;;;;26.60;14.13;;;4.80;99.90;;;;;;4976553;28;20631;-75
2023/01/09 08:56:25;;;;;;;29.70;15.73;;;4.90;99.90;;;;;;4976960;28;20307;-74
2023/01/09 08:58:54;;;;;;;29.60;14.80;;;4.80;99.90;;;;;;4977356;28;20197;-73
2023/01/09 09:01:21;;;;;;;25.83;14.50;;;4.80;99.90;;;;;;4977159;28;20196;-75
2023/01/09 09:03:48;;;;;;;27.47;14.87;;;4.80;99.90;;;;;;4977075;28;20190;-75
2023/01/09 09:06:15;;;;;;;29.83;15.77;;;4.80;99.90;;;;;;4976833;28;20202;-80
2023/01/09 09:08:42;;;;;;;28.00;14.43;;;4.90;99.90;;;;;;4977310;28;20292;-80
2023/01/09 09:11:09;;;;;;;27.93;15.20;;;4.90;99.90;;;;;;4977326;28;20232;-81
2023/01/09 09:13:36;;;;;;;32.83;15.43;;;4.90;99.90;;;;;;4994368;28;20201;-83
2023/01/09 09:16:03;;;;;;;24.70;14.90;;;5.00;99.90;;;;;;4976439;28;20206;-84
2023/01/09 09:18:29;;;;;;;25.67;15.50;;;5.00;99.90;;;;;;4976911;28;20198;-74
2023/01/09 09:20:56;;;;;;;27.73;15.00;;;4.90;99.90;;;;;;4976895;28;20268;-80
2023/01/09 09:23:23;;;;;;;29.47;15.53;;;5.00;99.90;;;;;;4993902;28;20203;-79
2023/01/09 09:25:50;;;;;;;26.67;14.87;;;5.10;99.90;;;;;;4994019;28;20652;-84
2023/01/09 09:28:17;;;;;;;27.43;15.33;;;5.10;99.90;;;;;;4977068;28;20211;-80
2023/01/09 09:30:44;;;;;;;28.83;15.17;;;5.00;99.90;;;;;;4994487;28;20237;-79
2023/01/09 09:33:11;;;;;;;27.93;15.37;;;5.10;99.90;;;;;;4977210;28;20201;-79
2023/01/09 09:35:40;;;;;;;29.70;15.57;;;5.10;99.90;;;;;;4960597;28;20236;-78
2023/01/09 09:38:10;;;;;;;29.50;15.93;;;5.00;99.90;;;;;;4976371;28;20228;-79
2023/01/09 09:40:56;;;;;;;27.57;15.90;;;5.10;99.90;;;;;;4976922;28;20214;-80
2023/01/09 09:47:04;;;;;;;30.77;15.17;;;5.10;99.90;;;;;;4992730;28;20316;-80
2023/01/09 09:50:12;;;;;;;28.07;15.17;;;5.10;99.90;;;;;;4976506;28;20211;-80
2023/01/09 09:53:04;;;;;;;26.77;15.47;;;5.20;99.90;;;;;;4934230;29;20250;-76
2023/01/09 09:55:37;;;;;;;26.90;15.03;;;5.30;99.90;;;;;;4917302;29;20198;-73
2023/01/09 09:58:25;;;;;;;29.37;15.73;;;5.40;99.90;;;;;;4933713;29;20202;-76
2023/01/09 10:00:53;;;;;;;29.00;14.83;;;5.40;99.90;;;;;;4933199;29;20204;-77
2023/01/09 10:03:44;;;;;;;31.10;15.97;;;5.50;99.90;;;;;;4933386;29;20216;-75
2023/01/09 10:06:47;;;;;;;;;;;;;;;;;;;;;
2023/01/09 10:09:32;;;;;;;26.30;14.57;;;5.50;99.90;;;;;;4898368;29;20237;-82
2023/01/09 10:12:14;;;;;;;27.97;14.90;;;5.50;99.90;;;;;;4898691;29;20244;-77
2023/01/09 10:14:41;;;;;;;27.03;15.03;;;5.50;99.90;;;;;;4898416;29;20216;-81
2023/01/09 10:17:32;;;;;;;25.47;15.03;;;5.60;99.90;;;;;;4898722;29;20208;-78
2023/01/09 10:20:20;;;;;;;27.40;15.07;;;5.60;99.90;;;;;;4898392;29;20202;-75
2023/01/09 10:22:56;;;;;;;27.93;15.10;;;5.70;99.90;;;;;;4898694;29;20212;-80
2023/01/09 10:26:06;;;;;;;26.20;14.30;;;5.70;99.90;;;;;;4898285;29;20594;-75
2023/01/09 10:29:04;;;;;;;30.07;15.67;;;5.60;99.90;;;;;;4880007;29;20669;-75
2023/01/09 10:31:46;;;;;;;28.07;15.70;;;5.60;99.90;;;;;;4880083;29;20251;-74
2023/01/09 10:34:50;;;;;;;27.97;15.73;;;5.50;99.90;;;;;;4879974;29;20196;-75
2023/01/09 10:37:27;;;;;;;27.37;15.33;;;5.50;99.90;;;;;;4879606;29;20326;-73
2023/01/09 10:39:59;;;;;;;28.00;15.60;;;5.60;99.90;;;;;;4895508;29;20299;-74
2023/01/09 10:42:38;;;;;;;29.50;15.93;;;5.60;99.90;;;;;;4895175;29;20205;-75
2023/01/09 10:45:34;;;;;;;29.33;16.73;;;5.60;99.90;;;;;;4895982;29;20201;-76
2023/01/09 10:48:34;;;;;;;26.63;15.43;;;5.60;99.90;;;;;;4904461;29;20228;-74
2023/01/09 10:51:11;;;;;;;27.47;15.83;;;5.70;99.90;;;;;;4921043;29;20242;-72
2023/01/09 10:53:44;;;;;;;28.57;16.00;;;5.70;99.90;;;;;;4936794;29;20243;-73
2023/01/09 10:56:19;;;;;;;28.10;15.97;;;5.60;99.90;;;;;;4920145;29;20239;-72
2023/01/09 10:58:46;;;;;;;28.60;15.70;;;5.60;99.90;;;;;;4936212;29;20207;-72
2023/01/09 11:01:31;;;;;;;27.00;16.23;;;5.60;99.90;;;;;;4920849;29;20211;-73
2023/01/09 11:04:01;;;;;;;29.10;16.10;;;5.70;99.90;;;;;;4913047;28;20206;-80
2023/01/09 11:06:47;;;;;;;27.17;15.97;;;5.70;99.90;;;;;;4978852;28;20672;-80
2023/01/09 11:09:15;;;;;;;28.90;16.17;;;5.60;99.90;;;;;;4995922;28;20676;-80
2023/01/09 11:11:45;;;;;;;32.67;17.70;;;5.60;99.90;;;;;;4996544;28;20210;-75
2023/01/09 11:14:19;;;;;;;30.70;17.40;;;5.60;99.90;;;;;;4995394;28;20206;-76
2023/01/09 11:16:54;;;;;;;32.33;17.73;;;5.60;99.90;;;;;;4978691;28;20240;-78
2023/01/09 11:19:23;;;;;;;30.60;17.57;;;5.60;99.90;;;;;;4995131;28;20214;-78
2023/01/09 11:22:08;;;;;;;33.43;18.43;;;5.60;99.90;;;;;;4995252;28;20298;-80
2023/01/09 11:24:35;;;;;;;32.57;18.30;;;5.60;99.90;;;;;;4978724;28;20215;-77
2023/01/09 11:27:22;;;;;;;29.33;17.23;;;5.70;99.90;;;;;;4963053;28;20247;-79
2023/01/09 11:30:21;;;;;;;34.17;18.07;;;5.70;99.90;;;;;;4978666;28;20201;-74
2023/01/09 11:32:48;;;;;;;34.70;18.90;;;5.80;99.90;;;;;;4975769;28;20207;-74
2023/01/09 11:35:25;;;;;;;31.77;18.60;;;5.70;99.90;;;;;;4995732;28;20190;-81
2023/01/09 11:38:15;;;;;;;33.33;18.63;;;5.60;99.90;;;;;;4995356;28;20228;-83
2023/01/09 11:41:07;;;;;;;37.03;18.87;;;5.70;99.90;;;;;;4978618;28;20205;-85
2023/01/09 11:43:38;;;;;;;33.90;18.73;;;5.60;99.90;;;;;;4994993;28;20204;-80
2023/01/09 11:46:07;;;;;;;34.67;19.13;;;5.50;99.90;;;;;;4978846;28;20201;-81
2023/01/09 11:48:55;;;;;;;30.90;18.13;;;5.50;99.90;;;;;;4978512;28;20210;-78
2023/01/09 11:51:30;;;;;;;32.60;18.57;;;5.50;99.90;;;;;;4995970;28;20235;-79
2023/01/09 11:54:25;;;;;;;36.30;19.57;;;5.50;99.90;;;;;;4977632;28;20701;-80
2023/01/09 11:56:54;;;;;;;31.10;18.20;;;5.50;99.90;;;;;;4995269;28;20711;-83
2023/01/09 11:59:25;;;;;;;33.20;18.27;;;5.40;99.90;;;;;;4977804;28;20287;-72
2023/01/09 12:02:16;;;;;;;33.17;18.93;;;5.50;99.90;;;;;;4976901;28;20306;-74
2023/01/09 12:05:10;;;;;;;37.37;19.50;;;5.50;99.90;;;;;;4977991;28;20269;-83
2023/01/09 12:08:01;;;;;;;37.13;19.47;;;5.50;99.90;;;;;;4977607;28;20657;-81
2023/01/09 12:10:31;;;;;;;36.83;19.47;;;5.50;99.90;;;;;;4977357;28;20230;-82
2023/01/09 12:13:09;;;;;;;35.60;19.60;;;5.60;99.90;;;;;;4978101;28;20225;-81
2023/01/09 12:16:02;;;;;;;37.33;20.37;;;5.50;99.90;;;;;;4995229;28;20268;-80
2023/01/09 12:18:38;;;;;;;36.37;19.63;;;5.60;99.90;;;;;;4995099;28;20237;-79
2023/01/09 12:21:12;;;;;;;36.67;20.30;;;5.60;99.90;;;;;;4994275;28;20549;-79
2023/01/09 12:24:16;;;;;;;36.27;20.70;;;5.70;99.90;;;;;;4977397;28;20229;-75
2023/01/09 12:26:46;;;;;;;35.90;20.90;;;5.60;99.90;;;;;;4993439;28;20254;-77
2023/01/09 12:29:45;;;;;;;38.90;20.97;;;5.60;99.90;;;;;;4977128;28;20447;-75
2023/01/09 12:32:52;;;;;;;38.03;21.03;;;5.60;99.90;;;;;;4976858;28;20636;-79
2023/01/09 12:35:52;;;;;;;37.67;21.03;;;5.70;99.90;;;;;;4960758;28;20199;-76
2023/01/09 12:38:46;;;;;;;37.70;21.37;;;5.80;99.90;;;;;;4918665;29;20256;-81
2023/01/09 12:41:31;;;;;;;40.17;21.67;;;5.80;99.90;;;;;;4934782;29;20270;-77
2023/01/09 12:44:26;;;;;;;40.83;21.03;;;5.90;99.90;;;;;;4934815;29;20215;-77
2023/01/09 12:47:15;;;;;;;38.23;22.00;;;5.80;99.90;;;;;;4934271;29;20397;-79
2023/01/09 12:50:00;;;;;;;36.30;20.80;;;5.90;99.90;;;;;;4919009;29;20634;-81
2023/01/09 12:52:45;;;;;;;37.93;21.63;;;5.90;99.90;;;;;;4934393;29;20720;-79
2023/01/09 12:55:22;;;;;;;36.13;21.30;;;6.00;99.90;;;;;;4934547;29;20212;-81
2023/01/09 12:57:53;;;;;;;38.83;21.27;;;6.00;99.90;;;;;;4934277;29;20243;-80
2023/01/09 13:00:39;;;;;;;39.10;22.00;;;6.00;99.90;;;;;;4934366;29;20557;-74
2023/01/09 13:03:28;;;;;;;35.50;21.23;;;6.00;99.90;;;;;;4934838;29;20391;-77
2023/01/09 13:05:56;;;;;;;35.73;21.20;;;6.10;99.90;;;;;;4924099;29;20202;-76
2023/01/09 13:08:30;;;;;;;38.43;22.47;;;6.20;99.90;;;;;;4899478;29;20263;-77
2023/01/09 13:11:09;;;;;;;38.73;21.80;;;6.10;99.90;;;;;;4912497;29;20234;-82
2023/01/09 13:14:00;;;;;;;40.70;22.23;;;6.10;99.90;;;;;;4899299;29;20202;-76
2023/01/09 13:16:35;;;;;;;37.63;21.63;;;6.20;99.90;;;;;;4974933;28;20180;-73
2023/01/09 13:19:16;;;;;;;39.70;22.17;;;6.10;99.90;;;;;;4973497;28;20615;-73
2023/01/09 13:21:46;;;;;;;38.57;21.30;;;6.20;99.90;;;;;;4973472;28;20183;-73
2023/01/09 13:24:23;;;;;;;37.10;22.30;;;6.20;99.90;;;;;;4973202;28;20286;-79
2023/01/09 13:26:55;;;;;;;38.00;22.20;;;6.20;99.90;;;;;;4941285;28;20303;-80
2023/01/09 13:29:38;;;;;;;37.90;22.43;;;6.20;99.90;;;;;;4973744;28;20195;-80
2023/01/09 13:32:41;;;;;;;40.07;22.17;;;6.20;99.90;;;;;;4974320;28;20213;-78
2023/01/09 13:35:13;;;;;;;41.57;24.00;;;6.30;99.90;;;;;;4973074;28;20204;-76
2023/01/09 13:37:41;;;;;;;38.83;22.17;;;6.30;99.90;;;;;;4941826;28;20219;-77